Terminal Aerodrome Forecast
Issued by NWS Charleston, WV

Current Version | Previous Version | Text Only | Print | Product List | Glossary Off
Versions: 1 2 3 4 5 6 7 8 9 10 11 12 13 14 15 16 17 18 19 20 21 22 23 24 25 26

000
FTUS41 KRLX 261400 AAA
TAFPKB
TAF AMD
KPKB 261408Z 2614/2712 32009KT 2SM -SN BR OVC006
     FM261600 33007KT 1SM -SN OVC004
     FM262000 31008KT 6SM -SN OVC015
     FM262300 31007KT 5SM -SN BKN015=

USA.gov is the U.S. government's official web portal to all federal, state and local government web resources and services.